Graceville, Queensland

10:38 PM EST on August 21, 2014 (GMT +1000)
Fig Tree Pocket | Change Station
CLOSE
Current Station
Personal Weather Station
Location: Fig Tree Pocket, QUEENSLAND
Elevation: 98 ft
Nearby Weather Stations

Elev 98 ft 27.53 °S, 152.97 °E | Updated 17 seconds ago

Partly Cloudy
Partly Cloudy
62.4 °F
Feels Like 62.4 °F
N
0.0
Wind Variable Wind from North
Gusts 4.0 mph

Today
High -- | Low -- °F
--% Chance of Precip.
Yesterday
High -- | Low -- °F
Precip. -- in
6:13 AM 5:29 PM
Waning Crescent, 14% visible
Pressure 30.24 in
Visibility 6.2 miles
Clouds Few 2000 ft
Dew Point 53 °F
Humidity 71%
Rainfall 0.00 in
Snow Depth Not available.
UV 0 out of 12
Pollen Not available.
Air Quality Not available.
Flu Activity Not available.
METAR YBBN 211200Z 19009KT 9999 FEW020 15/13 Q1024 INTER 1200/1500 3000 SHRA BKN015

More Conditions Fewer Conditions

Pressure 30.24 in
Visibility 6.2 miles
Clouds Few 2000 ft
Dew Point 53 °F
Humidity 71%
Rainfall 0.00 in
Snow Depth Not available.
UV 0 out of 12
Pollen Not available.
Air Quality Not available.
Flu Activity Not available.
METAR YBBN 211200Z 19009KT 9999 FEW020 15/13 Q1024 INTER 1200/1500 3000 SHRA BKN015

More Conditions Fewer Conditions

10-Day Weather Forecast

Almanac

Astronomy

Aug. 21, 2014 Rise Set
Actual Time 6:13 AM EST 5:29 PM EST
Civil Twilight 5:49 AM EST 5:53 PM EST
Nautical Twilight 5:22 AM EST 6:20 PM EST
Astronomical Twilight 4:55 AM EST 6:47 PM EST
Moon 2:50 AM EST 1:51 PM EST
Length of Visible Light 12h 03m
Length of Day
11h 15m
Tomorrow will be 1m 26s longer.
Waning Crescent, 14% of the Moon is Illuminated
Today
Waning Crescent
Aug 25
New
Sep 2
First Quarter
Sep 8
Full
Sep 15
Last Quarter

Yesterday's Extremes

Country Highs Country Lows

Community

WunderPhotos

Upload Photos

1,745,892 photos uploaded!

WunderBlogs® & News

Nearby

Snow Depth

Not available.

Earthquake Activity

City Distance Mag. Time & Date
No recent earthquake activity has been reported nearby.
Minimum magnitude displayed is 2.5.

Coastal Water Temperatures

Place Temperature
No Stations Reporting

Nearby Weather Stations